Terminal Aerodrome Forecast
Issued by NWS Cleveland, OH

Home | Current Version | Previous Version | Text Only | Print | Product List | Glossary Off
Versions: 1 2 3 4 5 6 7 8 9 10 11 12 13 14 15 16 17 18 19 20 21 22 23

000
FTUS41 KCLE 011400 AAB
TAFERI
TAF AMD
KERI 011408Z 0114/0212 25005KT 2SM -SN BKN045
      TEMPO 0115/0118 18004KT 3/4SM -SN BR OVC015
     FM020000 25008KT 6SM -SN OVC015
     FM020600 25009KT P6SM OVC025=

USA.gov is the U.S. government's official web portal to all federal, state and local government web resources and services.